Main page
METAR-TAF:

METAR-TAF

Airports :

Sarzana, Italy

Aeroporto di Sarzana-Luni

latitude: 44-05N, longitude: 009-59E, elevation: 9 m

Current weather observation

The report was made 7 hours and 13 minutes ago, at 14:55 UTC
Wind 5 kt from the North/Northeast
Temperature 12°C
Humidity 35%
Pressure 1014 hPa
Visibility 10 km or more
Few clouds at a height of 3000 ft

METAR: LIQW 191455Z 02005KT 9999 FEW030 12/M03 Q1014 RMK SCT VIS MIN 9999 WIND THR18 04007KT BLU

Time: 23:08 (22:08 UTC)


TAF: missing

Weather observations and forecasts of more than 4000 airports (METAR and TAF reports).

The available stations are represented by yellow and red dots on the map.

Hover mouse over dot to see the name of the station.

Then click to see weather observations and forecasts.

To change the map : click on the green buttons with a black cross to zoom in, on the green button with a dash to zoom out, or on the green arrows for adjacent maps.


METAR-TAF: